createdAt,value
2022-09-06T00:00:02.103Z,955.81
2022-09-06T00:01:02.093Z,955.90
2022-09-06T00:02:02.079Z,955.80
2022-09-06T00:03:02.176Z,955.87
2022-09-06T00:04:02.166Z,955.80
2022-09-06T00:05:02.041Z,955.85
2022-09-06T00:06:02.022Z,955.81
2022-09-06T00:07:02.012Z,955.82
2022-09-06T00:08:02.018Z,955.80
2022-09-06T00:09:01.984Z,955.78
2022-09-06T00:10:01.979Z,955.79
2022-09-06T00:11:01.967Z,955.81
2022-09-06T00:12:01.975Z,955.76
2022-09-06T00:13:01.946Z,955.80
2022-09-06T00:14:01.925Z,955.77
2022-09-06T00:15:01.907Z,955.79
2022-09-06T00:16:01.935Z,955.81
2022-09-06T00:17:01.880Z,955.80
2022-09-06T00:18:01.868Z,955.75
2022-09-06T00:19:02.039Z,955.70
2022-09-06T00:20:01.853Z,955.71
2022-09-06T00:21:01.830Z,955.76
2022-09-06T00:22:01.837Z,955.78
2022-09-06T00:23:01.801Z,955.74
2022-09-06T00:24:01.806Z,955.76
2022-09-06T00:25:01.781Z,955.77
2022-09-06T00:26:01.755Z,955.75
2022-09-06T00:27:01.750Z,955.75
2022-09-06T00:28:01.730Z,955.73
2022-09-06T00:29:01.839Z,955.71
2022-09-06T00:30:01.708Z,955.72
2022-09-06T00:31:01.787Z,955.72
2022-09-06T00:32:01.696Z,955.73
2022-09-06T00:33:01.662Z,955.73
2022-09-06T00:34:01.651Z,955.70
2022-09-06T00:35:01.676Z,955.73
2022-09-06T00:36:01.633Z,955.72
2022-09-06T00:37:01.628Z,955.74
2022-09-06T00:38:01.638Z,955.75
2022-09-06T00:39:01.599Z,955.73
2022-09-06T00:40:01.712Z,955.72
2022-09-06T00:41:01.575Z,955.73
2022-09-06T00:42:01.563Z,955.72
2022-09-06T00:43:01.551Z,955.72
2022-09-06T00:44:01.561Z,955.71
2022-09-06T00:45:01.526Z,955.71
2022-09-06T00:46:01.589Z,955.73
2022-09-06T00:47:01.568Z,955.69
2022-09-06T00:48:01.479Z,955.72
2022-09-06T00:49:01.466Z,955.76
2022-09-06T00:50:01.449Z,955.76
2022-09-06T00:51:01.441Z,955.76
2022-09-06T00:52:01.443Z,955.76
2022-09-06T00:53:01.412Z,955.76
2022-09-06T00:54:01.423Z,955.72
2022-09-06T00:55:01.384Z,955.74
2022-09-06T00:56:01.371Z,955.73
2022-09-06T00:57:01.357Z,955.78
2022-09-06T00:58:01.353Z,955.77
2022-09-06T00:59:01.369Z,955.73
2022-09-06T01:00:01.320Z,955.75
2022-09-06T01:01:01.308Z,955.74
2022-09-06T01:02:01.461Z,955.78
2022-09-06T01:03:01.271Z,955.74
2022-09-06T01:04:01.259Z,955.75
2022-09-06T01:05:01.260Z,955.78
2022-09-06T01:06:01.243Z,955.75
2022-09-06T01:07:01.252Z,955.78
2022-09-06T01:08:01.205Z,955.77
2022-09-06T01:09:01.227Z,955.75
2022-09-06T01:10:01.177Z,955.77
2022-09-06T01:11:01.199Z,955.77
2022-09-06T01:12:01.149Z,955.73
2022-09-06T01:13:01.149Z,955.72
2022-09-06T01:14:01.182Z,955.80
2022-09-06T01:15:01.122Z,955.78
2022-09-06T01:16:01.218Z,955.77
2022-09-06T01:17:01.097Z,955.79
2022-09-06T01:18:01.078Z,955.74
2022-09-06T01:19:01.062Z,955.78
2022-09-06T01:20:01.062Z,955.77
2022-09-06T01:21:01.027Z,955.76
2022-09-06T01:22:01.017Z,955.76
2022-09-06T01:23:01.001Z,955.78
2022-09-06T01:24:01.059Z,955.77
2022-09-06T01:25:00.996Z,955.72
2022-09-06T01:26:00.955Z,955.76
2022-09-06T01:27:00.949Z,955.72
2022-09-06T01:28:00.934Z,955.75
2022-09-06T01:29:00.921Z,955.74
2022-09-06T01:30:00.927Z,955.77
2022-09-06T01:31:00.933Z,955.78
2022-09-06T01:32:00.906Z,955.79
2022-09-06T01:33:00.869Z,955.82
2022-09-06T01:34:00.850Z,955.83
2022-09-06T01:35:00.870Z,955.82
2022-09-06T01:36:00.851Z,955.79
2022-09-06T01:37:09.920Z,955.79
2022-09-06T01:38:00.807Z,955.80
2022-09-06T01:39:00.792Z,955.82
2022-09-06T01:40:00.810Z,955.82
2022-09-06T01:41:00.806Z,955.82
2022-09-06T01:42:00.739Z,955.85
2022-09-06T01:43:00.770Z,955.88
2022-09-06T01:44:00.719Z,955.91
2022-09-06T01:45:00.708Z,955.90
2022-09-06T01:46:00.730Z,955.93
2022-09-06T01:47:00.699Z,955.91
2022-09-06T01:48:00.663Z,955.91
2022-09-06T01:49:00.650Z,955.89
2022-09-06T01:50:00.637Z,955.87
2022-09-06T01:51:00.624Z,955.92
2022-09-06T01:52:00.636Z,955.88
2022-09-06T01:53:00.607Z,955.93
2022-09-06T01:54:00.581Z,955.90
2022-09-06T01:55:00.621Z,955.90
2022-09-06T01:56:00.558Z,955.88
2022-09-06T01:57:00.578Z,955.88
2022-09-06T01:58:00.535Z,955.90
2022-09-06T01:59:00.547Z,955.94
2022-09-06T02:00:00.508Z,955.92
2022-09-06T02:01:00.498Z,955.92
2022-09-06T02:02:00.478Z,955.85
2022-09-06T02:03:00.499Z,955.84
2022-09-06T02:04:00.454Z,955.82
2022-09-06T02:05:00.439Z,955.81
2022-09-06T02:06:00.449Z,955.82
2022-09-06T02:07:00.420Z,955.77
2022-09-06T02:08:00.441Z,955.77
2022-09-06T02:09:00.384Z,955.78
2022-09-06T02:10:00.370Z,955.76
2022-09-06T02:11:00.410Z,955.74
2022-09-06T02:12:00.348Z,955.73
2022-09-06T02:13:00.363Z,955.74
2022-09-06T02:14:00.315Z,955.75
2022-09-06T02:15:00.332Z,955.71
2022-09-06T02:16:00.287Z,955.70
2022-09-06T02:17:00.345Z,955.71
2022-09-06T02:18:00.308Z,955.72
2022-09-06T02:19:00.248Z,955.76
2022-09-06T02:20:00.244Z,955.69
2022-09-06T02:21:00.234Z,955.69
2022-09-06T02:22:00.204Z,955.73
2022-09-06T02:23:00.230Z,955.73
2022-09-06T02:24:00.181Z,955.74
2022-09-06T02:25:00.191Z,955.74
2022-09-06T02:26:00.156Z,955.70
2022-09-06T02:27:00.167Z,955.70
2022-09-06T02:28:00.153Z,955.70
2022-09-06T02:29:00.114Z,955.75
2022-09-06T02:30:00.128Z,955.75
2022-09-06T02:31:00.270Z,955.74
2022-09-06T02:32:00.092Z,955.73
2022-09-06T02:33:00.102Z,955.76
2022-09-06T02:34:00.077Z,955.77
2022-09-06T02:35:00.045Z,955.76
2022-09-06T02:36:00.027Z,955.77
2022-09-06T02:37:00.010Z,955.78
2022-09-06T02:38:00.001Z,955.80
2022-09-06T02:39:00.004Z,955.81
2022-09-06T02:40:00.034Z,955.81
2022-09-06T02:40:59.978Z,955.79
2022-09-06T02:41:59.976Z,955.75
2022-09-06T02:42:59.931Z,955.80
2022-09-06T02:43:59.919Z,955.78
2022-09-06T02:44:59.904Z,955.78
2022-09-06T02:45:59.984Z,955.77
2022-09-06T02:46:59.910Z,955.78
2022-09-06T02:47:59.871Z,955.78
2022-09-06T02:48:59.851Z,955.80
2022-09-06T02:49:59.847Z,955.78
2022-09-06T02:50:59.820Z,955.79
2022-09-06T02:51:59.849Z,955.79
2022-09-06T02:52:59.802Z,955.76
2022-09-06T02:53:59.792Z,955.78
2022-09-06T02:54:59.803Z,955.74
2022-09-06T02:55:59.753Z,955.72
2022-09-06T02:56:59.758Z,955.73
2022-09-06T02:57:59.735Z,955.70
2022-09-06T02:58:59.722Z,955.77
2022-09-06T02:59:59.736Z,955.78
2022-09-06T03:00:59.740Z,955.77
2022-09-06T03:01:59.711Z,955.77
2022-09-06T03:02:59.666Z,955.75
2022-09-06T03:03:59.662Z,955.74
2022-09-06T03:04:59.666Z,955.73
2022-09-06T03:05:59.636Z,955.70
2022-09-06T03:06:59.631Z,955.72
2022-09-06T03:07:59.595Z,955.77
2022-09-06T03:08:59.586Z,955.72
2022-09-06T03:09:59.614Z,955.72
2022-09-06T03:10:59.595Z,955.69
2022-09-06T03:11:59.574Z,955.70
2022-09-06T03:12:59.537Z,955.68
2022-09-06T03:13:59.518Z,955.68
2022-09-06T03:14:59.508Z,955.73
2022-09-06T03:15:59.499Z,955.70
2022-09-06T03:16:59.582Z,955.73
2022-09-06T03:17:59.479Z,955.73
2022-09-06T03:18:59.447Z,955.71
2022-09-06T03:19:59.441Z,955.74
2022-09-06T03:20:59.423Z,955.77
2022-09-06T03:21:59.431Z,955.76
2022-09-06T03:22:59.421Z,955.76
2022-09-06T03:23:59.402Z,955.74
2022-09-06T03:24:59.369Z,955.76
2022-09-06T03:25:59.354Z,955.75
2022-09-06T03:26:59.342Z,955.73
2022-09-06T03:27:59.358Z,955.75
2022-09-06T03:28:59.319Z,955.73
2022-09-06T03:29:59.304Z,955.67
2022-09-06T03:30:59.330Z,955.69
2022-09-06T03:31:59.300Z,955.68
2022-09-06T03:33:02.546Z,955.69
2022-09-06T03:33:59.256Z,955.71
2022-09-06T03:34:59.240Z,955.69
2022-09-06T03:35:59.222Z,955.65
2022-09-06T03:36:59.249Z,955.67
2022-09-06T03:37:59.200Z,955.65
2022-09-06T03:38:59.178Z,955.71
2022-09-06T03:39:59.263Z,955.67
2022-09-06T03:40:59.167Z,955.68
2022-09-06T03:41:59.163Z,955.67
2022-09-06T03:42:59.165Z,955.71
2022-09-06T03:43:59.115Z,955.70
2022-09-06T03:44:59.105Z,955.70
2022-09-06T03:45:59.172Z,955.70
2022-09-06T03:46:59.110Z,955.72
2022-09-06T03:47:59.092Z,955.74
2022-09-06T03:48:59.043Z,955.70
2022-09-06T03:49:59.039Z,955.70
2022-09-06T03:50:59.043Z,955.70
2022-09-06T03:51:59.021Z,955.67
2022-09-06T03:52:59.023Z,955.69
2022-09-06T03:53:58.993Z,955.71
2022-09-06T03:54:58.973Z,955.69
2022-09-06T03:55:58.961Z,955.67
2022-09-06T03:56:58.946Z,955.63
2022-09-06T03:57:58.931Z,955.66
2022-09-06T03:58:58.938Z,955.72
2022-09-06T03:59:58.908Z,955.70
2022-09-06T04:00:58.932Z,955.69
2022-09-06T04:01:58.903Z,955.67
2022-09-06T04:03:01.718Z,955.67
2022-09-06T04:03:58.871Z,955.68
2022-09-06T04:04:58.834Z,955.68
2022-09-06T04:05:58.869Z,955.70
2022-09-06T04:06:58.812Z,955.68
2022-09-06T04:07:58.801Z,955.65
2022-09-06T04:08:58.815Z,955.67
2022-09-06T04:09:58.772Z,955.69
2022-09-06T04:10:58.757Z,955.71
2022-09-06T04:11:58.749Z,955.72
2022-09-06T04:12:58.732Z,955.76
2022-09-06T04:13:58.749Z,955.70
2022-09-06T04:14:58.703Z,955.78
2022-09-06T04:15:58.690Z,955.82
2022-09-06T04:16:58.741Z,955.82
2022-09-06T04:17:58.668Z,955.74
2022-09-06T04:18:58.679Z,955.72
2022-09-06T04:19:58.648Z,955.70
2022-09-06T04:20:58.623Z,955.70
2022-09-06T04:21:58.637Z,955.70
2022-09-06T04:22:58.593Z,955.71
2022-09-06T04:23:58.714Z,955.74
2022-09-06T04:24:58.576Z,955.74
2022-09-06T04:25:58.555Z,955.70
2022-09-06T04:26:58.544Z,955.73
2022-09-06T04:27:58.534Z,955.72
2022-09-06T04:28:58.514Z,955.72
2022-09-06T04:29:58.529Z,955.74
2022-09-06T04:31:03.320Z,955.72
2022-09-06T04:31:58.547Z,955.70
2022-09-06T04:32:58.504Z,955.77
2022-09-06T04:33:58.475Z,955.73
2022-09-06T04:34:58.443Z,955.69
2022-09-06T04:35:58.422Z,955.69
2022-09-06T04:36:58.426Z,955.65
2022-09-06T04:37:58.403Z,955.72
2022-09-06T04:38:58.378Z,955.75
2022-09-06T04:39:58.428Z,955.75
2022-09-06T04:40:58.440Z,955.74
2022-09-06T04:41:58.341Z,955.74
2022-09-06T04:42:58.358Z,955.76
2022-09-06T04:43:58.323Z,955.79
2022-09-06T04:44:58.393Z,955.79
2022-09-06T04:45:58.359Z,955.75
2022-09-06T04:46:58.275Z,955.79
2022-09-06T04:47:58.296Z,955.80
2022-09-06T04:48:58.256Z,955.81
2022-09-06T04:49:58.239Z,955.83
2022-09-06T04:50:58.219Z,955.83
2022-09-06T04:51:58.212Z,955.83
2022-09-06T04:52:58.198Z,955.85
2022-09-06T04:53:58.204Z,955.84
2022-09-06T04:54:58.169Z,955.88
2022-09-06T04:55:58.181Z,955.87
2022-09-06T04:56:58.138Z,955.87
2022-09-06T04:57:58.126Z,955.88
2022-09-06T04:58:58.195Z,955.85
2022-09-06T04:59:58.106Z,955.85
2022-09-06T05:00:58.183Z,955.85
2022-09-06T05:01:58.117Z,955.76
2022-09-06T05:02:58.087Z,955.85
2022-09-06T05:03:58.053Z,955.83
2022-09-06T05:04:58.034Z,955.84
2022-09-06T05:05:58.046Z,955.83
2022-09-06T05:06:58.007Z,955.83
2022-09-06T05:07:57.995Z,955.83
2022-09-06T05:08:58.010Z,955.80
2022-09-06T05:09:57.966Z,955.85
2022-09-06T05:10:57.968Z,955.86
2022-09-06T05:11:57.941Z,955.86
2022-09-06T05:12:57.966Z,955.86
2022-09-06T05:13:57.992Z,955.82
2022-09-06T05:14:57.891Z,955.82
2022-09-06T05:15:57.908Z,955.84
2022-09-06T05:16:57.936Z,955.91
2022-09-06T05:17:57.884Z,955.97
2022-09-06T05:18:57.844Z,955.97
2022-09-06T05:19:57.828Z,956.00
2022-09-06T05:20:57.817Z,956.03
2022-09-06T05:21:57.815Z,956.01
2022-09-06T05:22:57.819Z,955.96
2022-09-06T05:23:58.790Z,955.99
2022-09-06T05:24:57.772Z,955.95
2022-09-06T05:25:57.778Z,955.95
2022-09-06T05:26:57.736Z,955.97
2022-09-06T05:27:57.737Z,956.03
2022-09-06T05:28:57.771Z,956.00
2022-09-06T05:29:57.719Z,956.02
2022-09-06T05:30:57.702Z,956.05
2022-09-06T05:31:57.758Z,956.04
2022-09-06T05:32:57.719Z,956.05
2022-09-06T05:33:57.681Z,956.01
2022-09-06T05:34:57.643Z,956.04
2022-09-06T05:35:57.615Z,956.04
2022-09-06T05:36:57.597Z,956.12
2022-09-06T05:37:57.591Z,956.14
2022-09-06T05:38:57.604Z,956.08
2022-09-06T05:39:57.695Z,956.13
2022-09-06T05:40:57.543Z,956.15
2022-09-06T05:41:57.551Z,956.11
2022-09-06T05:42:57.582Z,956.11
2022-09-06T05:43:57.534Z,956.14
2022-09-06T05:44:57.503Z,956.13
2022-09-06T05:45:57.538Z,956.10
2022-09-06T05:46:57.462Z,956.14
2022-09-06T05:47:57.482Z,956.17
2022-09-06T05:48:57.433Z,956.15
2022-09-06T05:49:57.432Z,956.16
2022-09-06T05:50:57.408Z,956.17
2022-09-06T05:51:57.432Z,956.15
2022-09-06T05:52:57.385Z,956.15
2022-09-06T05:53:57.399Z,956.16
2022-09-06T05:54:57.365Z,956.14
2022-09-06T05:55:57.344Z,956.13
2022-09-06T05:56:57.338Z,956.14
2022-09-06T05:57:57.347Z,956.11
2022-09-06T05:58:57.308Z,956.10
2022-09-06T05:59:57.308Z,956.10
2022-09-06T06:00:57.295Z,956.13
2022-09-06T06:01:57.384Z,956.16
2022-09-06T06:02:57.301Z,956.15
2022-09-06T06:03:57.307Z,956.14
2022-09-06T06:04:57.333Z,956.12
2022-09-06T06:05:57.220Z,956.14
2022-09-06T06:06:57.213Z,956.14
2022-09-06T06:07:57.189Z,956.18
2022-09-06T06:08:57.207Z,956.18
2022-09-06T06:09:57.155Z,956.17
2022-09-06T06:10:57.167Z,956.17
2022-09-06T06:11:57.135Z,956.16
2022-09-06T06:12:57.140Z,956.16
2022-09-06T06:13:57.115Z,956.21
2022-09-06T06:14:57.120Z,956.15
2022-09-06T06:15:57.097Z,956.19
2022-09-06T06:16:57.179Z,956.15
2022-09-06T06:17:57.089Z,956.13
2022-09-06T06:18:57.039Z,956.14
2022-09-06T06:19:57.036Z,956.09
2022-09-06T06:20:57.013Z,956.14
2022-09-06T06:21:57.071Z,956.13
2022-09-06T06:22:57.007Z,956.17
2022-09-06T06:23:56.981Z,956.16
2022-09-06T06:24:56.987Z,956.19
2022-09-06T06:25:56.944Z,956.21
2022-09-06T06:26:56.959Z,956.18
2022-09-06T06:27:56.911Z,956.16
2022-09-06T06:28:56.930Z,956.16
2022-09-06T06:29:56.909Z,956.11
2022-09-06T06:30:56.888Z,956.07
2022-09-06T06:31:56.934Z,956.14
2022-09-06T06:32:56.848Z,956.16
2022-09-06T06:33:56.837Z,956.15
2022-09-06T06:34:56.832Z,956.18
2022-09-06T06:35:56.834Z,956.21
2022-09-06T06:36:56.801Z,956.22
2022-09-06T06:37:56.809Z,956.17
2022-09-06T06:38:56.771Z,956.21
2022-09-06T06:39:56.844Z,956.27
2022-09-06T06:41:00.176Z,956.29
2022-09-06T06:41:56.749Z,956.27
2022-09-06T06:42:56.727Z,956.28
2022-09-06T06:43:56.711Z,956.23
2022-09-06T06:44:56.718Z,956.22
2022-09-06T06:45:56.720Z,956.17
2022-09-06T06:46:56.671Z,956.21
2022-09-06T06:47:56.652Z,956.21
2022-09-06T06:48:56.641Z,956.20
2022-09-06T06:49:56.649Z,956.18
2022-09-06T06:50:56.613Z,956.20
2022-09-06T06:51:56.616Z,956.13
2022-09-06T06:52:56.624Z,956.22
2022-09-06T06:53:56.575Z,956.21
2022-09-06T06:54:56.566Z,956.25
2022-09-06T06:55:56.556Z,956.26
2022-09-06T06:56:56.536Z,956.26
2022-09-06T06:57:56.555Z,956.28
2022-09-06T06:58:56.505Z,956.31
2022-09-06T06:59:56.494Z,956.36
2022-09-06T07:00:56.637Z,956.39
2022-09-06T07:01:56.542Z,956.43
2022-09-06T07:02:56.456Z,956.42
2022-09-06T07:03:56.454Z,956.42
2022-09-06T07:04:56.424Z,956.50
2022-09-06T07:06:12.610Z,956.48
2022-09-06T07:07:56.404Z,956.50
2022-09-06T07:08:56.374Z,956.54
2022-09-06T07:10:56.351Z,956.64
2022-09-06T07:11:56.374Z,956.62
2022-09-06T07:12:56.320Z,956.71
2022-09-06T07:13:56.355Z,956.77
2022-09-06T07:14:56.293Z,956.73
2022-09-06T07:15:56.344Z,956.74
2022-09-06T07:16:56.296Z,956.74
2022-09-06T07:17:56.252Z,956.74
2022-09-06T07:18:56.243Z,956.77
2022-09-06T07:21:56.204Z,956.81
2022-09-06T07:22:56.346Z,956.84
2022-09-06T07:24:11.603Z,956.83
2022-09-06T07:24:56.167Z,956.88
2022-09-06T07:25:56.142Z,956.89
2022-09-06T07:27:56.142Z,956.91
2022-09-06T07:28:56.108Z,956.99
2022-09-06T07:29:56.110Z,956.99
2022-09-06T07:30:56.103Z,957.00
2022-09-06T07:32:11.631Z,957.03
2022-09-06T07:32:56.063Z,957.04
2022-09-06T07:33:56.032Z,957.06
2022-09-06T07:34:56.022Z,957.09
2022-09-06T07:35:56.035Z,957.13
2022-09-06T07:36:56.000Z,957.15
2022-09-06T07:37:55.993Z,957.12
2022-09-06T07:38:55.973Z,957.17
2022-09-06T07:39:56.084Z,957.19
2022-09-06T07:40:55.958Z,957.22
2022-09-06T07:41:55.936Z,957.24
2022-09-06T07:42:55.920Z,957.22
2022-09-06T07:43:55.920Z,957.26
2022-09-06T07:44:55.897Z,957.26
2022-09-06T07:45:55.945Z,957.29
2022-09-06T07:47:59.051Z,957.27
2022-09-06T07:48:55.847Z,957.31
2022-09-06T07:50:58.957Z,957.32
2022-09-06T07:51:55.825Z,957.26
2022-09-06T07:53:15.051Z,957.26
2022-09-06T07:54:12.771Z,957.22
2022-09-06T07:54:55.768Z,957.27
2022-09-06T07:55:55.736Z,957.28
2022-09-06T07:56:55.737Z,957.27
2022-09-06T07:57:55.720Z,957.28
2022-09-06T07:58:55.730Z,957.30
2022-09-06T07:59:55.699Z,957.28
2022-09-06T08:00:55.704Z,957.29
2022-09-06T08:01:55.741Z,957.23
2022-09-06T08:02:55.656Z,957.32
2022-09-06T08:03:55.661Z,957.26
2022-09-06T08:04:55.632Z,957.26
2022-09-06T08:06:11.155Z,957.24
2022-09-06T08:09:55.559Z,957.21
2022-09-06T08:10:55.546Z,957.20
2022-09-06T08:11:55.534Z,957.24
2022-09-06T08:12:55.518Z,957.21
2022-09-06T08:13:55.564Z,957.22
2022-09-06T08:14:55.498Z,957.27
2022-09-06T08:15:55.501Z,957.24
2022-09-06T08:16:55.462Z,957.22
2022-09-06T08:17:55.460Z,957.26
2022-09-06T08:18:55.464Z,957.28
2022-09-06T08:19:55.455Z,957.29
2022-09-06T08:20:55.421Z,957.27
2022-09-06T08:21:55.428Z,957.32
2022-09-06T08:22:55.416Z,957.27
2022-09-06T08:23:55.398Z,957.28
2022-09-06T08:24:55.370Z,957.25
2022-09-06T08:25:55.349Z,957.24
2022-09-06T08:26:55.336Z,957.17
2022-09-06T08:27:55.343Z,957.23
2022-09-06T08:28:55.306Z,957.26
2022-09-06T08:29:55.293Z,957.27
2022-09-06T08:30:55.284Z,957.23
2022-09-06T08:31:55.379Z,957.23
2022-09-06T08:32:55.255Z,957.24
2022-09-06T08:33:55.238Z,957.24
2022-09-06T08:34:55.230Z,957.28
2022-09-06T08:35:55.236Z,957.30
2022-09-06T08:36:55.207Z,957.23
2022-09-06T08:37:55.193Z,957.29
2022-09-06T08:38:55.168Z,957.25
2022-09-06T08:39:55.194Z,957.22
2022-09-06T08:40:55.178Z,957.22
2022-09-06T08:41:55.134Z,957.26
2022-09-06T08:42:55.130Z,957.25
2022-09-06T08:44:57.573Z,957.23
2022-09-06T08:45:55.866Z,957.22
2022-09-06T08:46:55.191Z,957.33
2022-09-06T08:47:55.057Z,957.30
2022-09-06T08:48:55.038Z,957.31
2022-09-06T08:49:55.024Z,957.34
2022-09-06T08:50:55.013Z,957.35
2022-09-06T08:51:55.010Z,957.38
2022-09-06T08:53:15.663Z,957.36
2022-09-06T08:53:54.981Z,957.42
2022-09-06T08:54:54.966Z,957.36
2022-09-06T08:55:54.986Z,957.36
2022-09-06T08:56:54.956Z,957.34
2022-09-06T08:57:54.934Z,957.40
2022-09-06T08:58:54.909Z,957.37
2022-09-06T08:59:54.895Z,957.34
2022-09-06T09:00:54.963Z,957.37
2022-09-06T09:01:54.892Z,957.37
2022-09-06T09:02:54.887Z,957.36
2022-09-06T09:03:54.834Z,957.37
2022-09-06T09:04:54.837Z,957.35
2022-09-06T09:05:54.808Z,957.31
2022-09-06T09:06:54.822Z,957.27
2022-09-06T09:07:54.815Z,957.26
2022-09-06T09:08:54.803Z,957.22
2022-09-06T09:09:54.761Z,957.26
2022-09-06T09:10:54.750Z,957.21
2022-09-06T09:11:54.734Z,957.17
2022-09-06T09:12:54.951Z,957.19
2022-09-06T09:13:56.089Z,957.17
2022-09-06T09:14:54.714Z,957.15
2022-09-06T09:15:54.770Z,957.18
2022-09-06T09:16:54.691Z,957.13
2022-09-06T09:17:54.644Z,957.08
2022-09-06T09:18:54.711Z,957.09
2022-09-06T09:19:54.626Z,957.03
2022-09-06T09:20:54.648Z,957.01
2022-09-06T09:21:54.593Z,957.06
2022-09-06T09:22:54.610Z,957.00
2022-09-06T09:23:54.570Z,957.01
2022-09-06T09:24:54.547Z,956.94
2022-09-06T09:25:54.549Z,956.94
2022-09-06T09:26:54.558Z,956.96
2022-09-06T09:27:54.510Z,956.96
2022-09-06T09:28:54.540Z,956.91
2022-09-06T09:30:54.510Z,956.94
2022-09-06T09:31:54.592Z,956.94
2022-09-06T09:32:54.482Z,956.94
2022-09-06T09:33:54.449Z,956.91
2022-09-06T09:34:54.436Z,956.93
2022-09-06T09:35:54.439Z,956.92
2022-09-06T09:37:59.132Z,956.92
2022-09-06T09:38:54.409Z,956.92
2022-09-06T09:39:54.387Z,956.87
2022-09-06T09:40:54.340Z,956.87
2022-09-06T09:41:54.327Z,956.84
2022-09-06T09:42:54.341Z,956.90
2022-09-06T09:43:54.328Z,956.82
2022-09-06T09:44:54.292Z,956.86
2022-09-06T09:45:54.264Z,956.81
2022-09-06T09:46:54.323Z,956.79
2022-09-06T09:47:54.250Z,956.75
2022-09-06T09:48:54.266Z,956.77
2022-09-06T09:49:54.223Z,956.70
2022-09-06T09:50:54.210Z,956.69
2022-09-06T09:51:54.191Z,956.65
2022-09-06T09:52:54.186Z,956.64
2022-09-06T09:53:54.190Z,956.60
2022-09-06T09:54:54.154Z,956.62
2022-09-06T09:55:54.148Z,956.65
2022-09-06T09:56:54.148Z,956.63
2022-09-06T09:57:54.115Z,956.58
2022-09-06T09:58:54.132Z,956.58
2022-09-06T09:59:54.092Z,956.54
2022-09-06T10:00:54.177Z,956.50
2022-09-06T10:01:54.098Z,956.48
2022-09-06T10:02:54.050Z,956.51
2022-09-06T10:04:54.039Z,956.43
2022-09-06T10:05:56.380Z,956.38
2022-09-06T10:07:09.865Z,956.34
2022-09-06T10:07:53.981Z,956.34
2022-09-06T10:08:53.979Z,956.27
2022-09-06T10:09:53.975Z,956.30
2022-09-06T10:10:53.946Z,956.26
2022-09-06T10:11:53.944Z,956.21
2022-09-06T10:12:53.919Z,956.19
2022-09-06T10:13:53.900Z,956.09
2022-09-06T10:14:53.924Z,956.10
2022-09-06T10:15:53.972Z,956.10
2022-09-06T10:16:53.862Z,956.07
2022-09-06T10:17:53.845Z,956.07
2022-09-06T10:18:53.861Z,956.04
2022-09-06T10:19:53.844Z,955.97
2022-09-06T10:20:53.814Z,955.98
2022-09-06T10:21:53.808Z,955.97
2022-09-06T10:22:53.798Z,955.92
2022-09-06T10:24:53.792Z,955.94
2022-09-06T10:25:53.762Z,955.86
2022-09-06T10:26:53.731Z,955.88
2022-09-06T10:28:10.355Z,955.82
2022-09-06T10:28:53.708Z,955.78
2022-09-06T10:29:53.687Z,955.75
2022-09-06T10:30:53.742Z,955.78
2022-09-06T10:31:53.669Z,955.79
2022-09-06T10:32:53.676Z,955.75
2022-09-06T10:33:53.656Z,955.79
2022-09-06T10:34:53.635Z,955.75
2022-09-06T10:35:53.615Z,955.71
2022-09-06T10:36:53.631Z,955.79
2022-09-06T10:37:53.590Z,955.75
2022-09-06T10:38:53.596Z,955.76
2022-09-06T10:39:53.616Z,955.75
2022-09-06T10:40:53.558Z,955.73
2022-09-06T10:41:53.523Z,955.73
2022-09-06T10:42:53.515Z,955.79
2022-09-06T10:43:53.529Z,955.77
2022-09-06T10:44:53.490Z,955.78
2022-09-06T10:45:53.512Z,955.77
2022-09-06T10:46:53.500Z,955.75
2022-09-06T10:47:53.455Z,955.75
2022-09-06T10:48:53.435Z,955.72
2022-09-06T10:49:53.420Z,955.72
2022-09-06T10:50:53.440Z,955.69
2022-09-06T10:51:53.423Z,955.65
2022-09-06T10:52:53.381Z,955.66
2022-09-06T10:53:53.369Z,955.67
2022-09-06T10:54:53.358Z,955.71
2022-09-06T10:55:53.346Z,955.65
2022-09-06T10:56:53.354Z,955.66
2022-09-06T10:59:53.312Z,955.67
2022-09-06T11:00:53.276Z,955.63
2022-09-06T11:01:53.413Z,955.60
2022-09-06T11:03:58.371Z,955.55
2022-09-06T11:05:53.227Z,955.53
2022-09-06T11:06:53.186Z,955.52
2022-09-06T11:08:53.536Z,955.49
2022-09-06T11:09:53.168Z,955.52
2022-09-06T11:10:53.154Z,955.51
2022-09-06T11:11:53.154Z,955.48
2022-09-06T11:12:53.143Z,955.44
2022-09-06T11:13:53.127Z,955.46
2022-09-06T11:14:53.090Z,955.49
2022-09-06T11:15:53.149Z,955.43
2022-09-06T11:16:53.079Z,955.38
2022-09-06T11:17:53.116Z,955.38
2022-09-06T11:18:53.057Z,955.42
2022-09-06T11:19:53.065Z,955.41
2022-09-06T11:20:53.055Z,955.38
2022-09-06T11:21:53.015Z,955.36
2022-09-06T11:22:53.018Z,955.38
2022-09-06T11:23:53.002Z,955.37
2022-09-06T11:24:52.964Z,955.29
2022-09-06T11:25:52.981Z,955.30
2022-09-06T11:26:52.935Z,955.29
2022-09-06T11:27:57.325Z,955.28
2022-09-06T11:28:52.922Z,955.25
2022-09-06T11:29:52.897Z,955.27
2022-09-06T11:30:52.955Z,955.24
2022-09-06T11:32:52.872Z,955.24
2022-09-06T11:33:52.873Z,955.21
2022-09-06T11:34:52.831Z,955.23
2022-09-06T11:35:52.829Z,955.23
2022-09-06T11:36:52.801Z,955.19
2022-09-06T11:37:52.825Z,955.18
2022-09-06T11:38:52.804Z,955.21
2022-09-06T11:40:52.764Z,955.15
2022-09-06T11:41:52.746Z,955.17
2022-09-06T11:42:52.751Z,955.14
2022-09-06T11:43:52.722Z,955.13
2022-09-06T11:44:52.722Z,955.10
2022-09-06T11:45:52.708Z,955.08
2022-09-06T11:46:52.798Z,955.11
2022-09-06T11:47:52.678Z,955.13
2022-09-06T11:48:52.649Z,955.11
2022-09-06T11:49:52.663Z,955.09
2022-09-06T11:50:52.655Z,955.08
2022-09-06T11:51:52.627Z,955.02
2022-09-06T11:52:52.599Z,955.03
2022-09-06T11:53:52.610Z,954.98
2022-09-06T11:54:52.601Z,954.96
2022-09-06T11:55:52.561Z,954.91
2022-09-06T11:56:52.538Z,954.95
2022-09-06T11:57:52.546Z,954.97
2022-09-06T11:58:52.537Z,954.94
2022-09-06T11:59:52.541Z,954.97
2022-09-06T12:00:52.504Z,954.93
2022-09-06T12:01:52.490Z,954.92
2022-09-06T12:02:53.224Z,954.94
2022-09-06T12:04:08.520Z,954.91
2022-09-06T12:04:52.465Z,954.92
2022-09-06T12:05:52.440Z,954.94
2022-09-06T12:06:52.449Z,954.94
2022-09-06T12:07:52.424Z,954.94
2022-09-06T12:08:52.386Z,954.95
2022-09-06T12:09:52.390Z,954.94
2022-09-06T12:10:52.406Z,954.92
2022-09-06T12:11:52.349Z,954.93
2022-09-06T12:12:52.342Z,954.94
2022-09-06T12:13:52.363Z,954.91
2022-09-06T12:14:52.331Z,954.92
2022-09-06T12:15:52.383Z,954.92
2022-09-06T12:16:52.314Z,954.90
2022-09-06T12:17:52.300Z,954.94
2022-09-06T12:18:52.265Z,954.89
2022-09-06T12:19:52.256Z,954.89
2022-09-06T12:20:52.243Z,954.91
2022-09-06T12:21:52.231Z,954.93
2022-09-06T12:22:52.225Z,954.88
2022-09-06T12:23:52.227Z,954.88
2022-09-06T12:24:52.184Z,954.85
2022-09-06T12:25:52.177Z,954.80
2022-09-06T12:26:55.731Z,954.78
2022-09-06T12:27:52.171Z,954.83
2022-09-06T12:28:52.220Z,954.80
2022-09-06T12:29:52.135Z,954.77
2022-09-06T12:30:52.214Z,954.78
2022-09-06T12:31:52.213Z,954.75
2022-09-06T12:32:52.117Z,954.76
2022-09-06T12:33:52.089Z,954.77
2022-09-06T12:35:58.348Z,954.69
2022-09-06T12:36:52.215Z,954.70
2022-09-06T12:37:52.024Z,954.69
2022-09-06T12:38:52.037Z,954.68
2022-09-06T12:39:52.026Z,954.67
2022-09-06T12:40:52.006Z,954.64
2022-09-06T12:41:51.996Z,954.65
2022-09-06T12:42:51.959Z,954.65
2022-09-06T12:43:51.949Z,954.61
2022-09-06T12:44:51.963Z,954.61
2022-09-06T12:45:51.924Z,954.63
2022-09-06T12:46:51.986Z,954.59
2022-09-06T12:47:51.902Z,954.60
2022-09-06T12:48:51.888Z,954.60
2022-09-06T12:49:51.865Z,954.54
2022-09-06T12:50:51.857Z,954.61